createdAt,value
2017-11-06T00:01:03.242Z,88.56
2017-11-06T00:02:13.755Z,88.46
2017-11-06T00:03:24.399Z,88.56
2017-11-06T00:04:34.834Z,88.46
2017-11-06T00:05:45.359Z,88.46
2017-11-06T00:06:55.872Z,88.46
2017-11-06T00:08:06.313Z,88.37
2017-11-06T00:09:16.744Z,88.37
2017-11-06T00:10:27.200Z,88.37
2017-11-06T00:11:37.682Z,88.28
2017-11-06T00:12:47.843Z,88.56
2017-11-06T00:13:58.318Z,88.46
2017-11-06T00:15:08.792Z,88.46
2017-11-06T00:16:19.181Z,88.56
2017-11-06T00:17:29.629Z,88.46
2017-11-06T00:18:40.110Z,88.46
2017-11-06T00:19:50.584Z,88.33
2017-11-06T00:21:00.720Z,88.75
2017-11-06T00:22:11.200Z,88.33
2017-11-06T00:23:21.330Z,88.46
2017-11-06T00:24:31.501Z,88.56
2017-11-06T00:25:42.007Z,88.56
2017-11-06T00:26:52.476Z,88.56
2017-11-06T00:28:02.957Z,88.66
2017-11-06T00:29:13.076Z,88.75
2017-11-06T00:30:23.219Z,88.37
2017-11-06T00:31:33.947Z,88.75
2017-11-06T00:32:44.394Z,88.18
2017-11-06T00:33:54.907Z,88.09
2017-11-06T00:35:05.357Z,87.99
2017-11-06T00:36:15.805Z,87.99
2017-11-06T00:37:26.259Z,87.99
2017-11-06T00:38:36.746Z,87.99
2017-11-06T00:39:47.231Z,87.99
2017-11-06T00:40:57.702Z,87.99
2017-11-06T00:42:08.145Z,87.9
2017-11-06T00:43:18.703Z,88.09
2017-11-06T00:44:28.966Z,88.18
2017-11-06T00:45:39.502Z,87.99
2017-11-06T00:46:49.194Z,87.99
2017-11-06T00:47:59.642Z,88.09
2017-11-06T00:49:10.114Z,88.18
2017-11-06T00:50:20.241Z,87.9
2017-11-06T00:51:30.684Z,87.9
2017-11-06T00:52:41.170Z,88.09
2017-11-06T00:53:51.663Z,87.71
2017-11-06T00:55:02.199Z,87.61
2017-11-06T00:56:12.653Z,87.71
2017-11-06T00:57:23.094Z,88.18
2017-11-06T00:58:33.610Z,88.18
2017-11-06T00:59:43.321Z,88.28
2017-11-06T01:00:53.760Z,87.71
2017-11-06T01:02:04.268Z,87.71
2017-11-06T01:03:14.730Z,87.61
2017-11-06T01:04:25.255Z,87.71
2017-11-06T01:05:35.264Z,87.61
2017-11-06T01:06:45.719Z,87.71
2017-11-06T01:07:56.170Z,87.71
2017-11-06T01:09:06.628Z,87.71
2017-11-06T01:10:17.104Z,87.42
2017-11-06T01:11:27.556Z,87.42
2017-11-06T01:12:37.706Z,87.61
2017-11-06T01:13:48.169Z,87.8
2017-11-06T01:14:58.720Z,87.71
2017-11-06T01:16:09.178Z,87.42
2017-11-06T01:17:19.642Z,87.32
2017-11-06T01:18:30.413Z,87.42
2017-11-06T01:19:40.964Z,87.71
2017-11-06T01:20:51.386Z,87.61
2017-11-06T01:22:01.961Z,87.8
2017-11-06T01:23:12.423Z,87.8
2017-11-06T01:24:22.855Z,87.13
2017-11-06T01:25:33.360Z,87.42
2017-11-06T01:26:43.483Z,87.76
2017-11-06T01:27:54.005Z,87.66
2017-11-06T01:29:04.465Z,87.38
2017-11-06T01:30:14.937Z,87.57
2017-11-06T01:31:25.383Z,88.13
2017-11-06T01:32:35.518Z,87.76
2017-11-06T01:33:46.140Z,87.61
2017-11-06T01:34:56.576Z,87.71
2017-11-06T01:36:07.057Z,87.9
2017-11-06T01:37:17.521Z,87.66
2017-11-06T01:38:28.043Z,87.66
2017-11-06T01:39:38.487Z,87.28
2017-11-06T01:40:48.614Z,88.23
2017-11-06T01:41:59.066Z,88.33
2017-11-06T01:43:09.504Z,87.66
2017-11-06T01:44:20.095Z,87.38
2017-11-06T01:45:30.554Z,87.47
2017-11-06T01:46:41.012Z,87.38
2017-11-06T01:47:51.482Z,87.47
2017-11-06T01:49:01.954Z,87.38
2017-11-06T01:50:12.378Z,87.38
2017-11-06T01:51:22.801Z,87.38
2017-11-06T01:52:33.272Z,87.38
2017-11-06T01:53:44.802Z,87.57
2017-11-06T01:54:55.270Z,87.61
2017-11-06T01:56:05.751Z,87.57
2017-11-06T01:57:15.849Z,87.28
2017-11-06T01:58:26.293Z,87.47
2017-11-06T01:59:36.535Z,87.47
2017-11-06T02:00:47.163Z,86.9
2017-11-06T02:01:57.865Z,86.71
2017-11-06T02:03:07.987Z,87.19
2017-11-06T02:04:18.497Z,86.99
2017-11-06T02:05:28.620Z,87.19
2017-11-06T02:06:38.818Z,87.38
2017-11-06T02:07:49.270Z,87.85
2017-11-06T02:08:59.729Z,87.28
2017-11-06T02:10:10.424Z,87.28
2017-11-06T02:11:20.989Z,86.9
2017-11-06T02:12:31.446Z,86.9
2017-11-06T02:13:41.902Z,87.19
2017-11-06T02:14:52.337Z,87.19
2017-11-06T02:16:02.812Z,86.99
2017-11-06T02:17:12.945Z,87.09
2017-11-06T02:18:23.381Z,86.9
2017-11-06T02:19:33.833Z,87.19
2017-11-06T02:20:44.135Z,86.9
2017-11-06T02:21:54.579Z,87.09
2017-11-06T02:23:05.174Z,87.28
2017-11-06T02:24:15.778Z,87.09
2017-11-06T02:25:25.921Z,87.09
2017-11-06T02:26:36.362Z,86.71
2017-11-06T02:27:46.823Z,86.99
2017-11-06T02:28:56.518Z,86.99
2017-11-06T02:30:07.022Z,86.52
2017-11-06T02:31:17.465Z,86.99
2017-11-06T02:32:27.990Z,86.71
2017-11-06T02:33:38.451Z,86.99
2017-11-06T02:34:48.890Z,87.09
2017-11-06T02:35:59.333Z,86.8
2017-11-06T02:37:09.900Z,87.28
2017-11-06T02:38:20.338Z,86.99
2017-11-06T02:39:30.799Z,87.19
2017-11-06T02:40:42.340Z,87.09
2017-11-06T02:41:52.151Z,87.19
2017-11-06T02:43:02.585Z,87.19
2017-11-06T02:44:12.721Z,86.99
2017-11-06T02:45:23.434Z,86.99
2017-11-06T02:46:33.936Z,86.52
2017-11-06T02:47:44.369Z,86.71
2017-11-06T02:48:54.947Z,86.71
2017-11-06T02:50:05.386Z,86.71
2017-11-06T02:51:15.975Z,86.52
2017-11-06T02:52:26.086Z,86.9
2017-11-06T02:53:36.524Z,86.8
2017-11-06T02:54:47.044Z,86.61
2017-11-06T02:55:57.475Z,86.14
2017-11-06T02:57:08.415Z,86.33
2017-11-06T02:58:18.856Z,86.33
2017-11-06T02:59:29.313Z,86.33
2017-11-06T03:00:39.819Z,86.05
2017-11-06T03:01:50.296Z,86.24
2017-11-06T03:03:00.790Z,86.24
2017-11-06T03:04:11.242Z,86.33
2017-11-06T03:05:21.673Z,86.14
2017-11-06T03:06:32.240Z,86.33
2017-11-06T03:07:42.699Z,86.33
2017-11-06T03:08:53.134Z,86.52
2017-11-06T03:10:03.567Z,86.14
2017-11-06T03:11:14.112Z,86.05
2017-11-06T03:12:24.583Z,86.8
2017-11-06T03:13:35.025Z,86.52
2017-11-06T03:14:45.461Z,86.61
2017-11-06T03:15:55.980Z,86.61
2017-11-06T03:17:07.409Z,86.8
2017-11-06T03:18:17.093Z,86.8
2017-11-06T03:19:27.533Z,86.43
2017-11-06T03:20:37.896Z,86.61
2017-11-06T03:21:48.017Z,86.8
2017-11-06T03:22:58.485Z,86.71
2017-11-06T03:24:08.970Z,86.52
2017-11-06T03:25:19.300Z,86.99
2017-11-06T03:26:29.778Z,86.71
2017-11-06T03:27:39.906Z,87.28
2017-11-06T03:28:51.337Z,86.99
2017-11-06T03:30:01.841Z,87.09
2017-11-06T03:31:12.330Z,86.9
2017-11-06T03:32:22.835Z,86.99
2017-11-06T03:33:33.266Z,86.99
2017-11-06T03:34:43.843Z,86.99
2017-11-06T03:35:54.305Z,87.09
2017-11-06T03:37:04.789Z,86.71
2017-11-06T03:38:15.226Z,87.19
2017-11-06T03:39:25.761Z,86.99
2017-11-06T03:40:35.884Z,86.61
2017-11-06T03:41:46.363Z,87.09
2017-11-06T03:42:56.874Z,86.61
2017-11-06T03:44:07.293Z,87.09
2017-11-06T03:45:17.434Z,87.19
2017-11-06T03:46:27.911Z,86.8
2017-11-06T03:47:38.340Z,86.9
2017-11-06T03:48:48.870Z,87.09
2017-11-06T03:49:59.311Z,86.9
2017-11-06T03:51:09.774Z,86.99
2017-11-06T03:52:20.233Z,86.99
2017-11-06T03:53:30.778Z,86.8
2017-11-06T03:54:41.254Z,86.71
2017-11-06T03:55:51.741Z,87.09
2017-11-06T03:57:02.178Z,86.71
2017-11-06T03:58:12.616Z,86.52
2017-11-06T03:59:22.748Z,86.71
2017-11-06T04:00:33.199Z,86.99
2017-11-06T04:01:43.631Z,86.52
2017-11-06T04:02:54.223Z,86.71
2017-11-06T04:04:04.679Z,86.8
2017-11-06T04:05:16.116Z,87.09
2017-11-06T04:06:26.666Z,87.19
2017-11-06T04:07:37.096Z,87.09
2017-11-06T04:08:47.622Z,86.99
2017-11-06T04:09:58.131Z,87.19
2017-11-06T04:11:08.595Z,87.09
2017-11-06T04:12:19.044Z,86.99
2017-11-06T04:13:29.532Z,87.19
2017-11-06T04:14:39.985Z,87.57
2017-11-06T04:15:50.479Z,87.57
2017-11-06T04:17:00.969Z,87.38
2017-11-06T04:18:11.104Z,87.66
2017-11-06T04:19:21.213Z,87.38
2017-11-06T04:20:31.712Z,87.09
2017-11-06T04:21:41.495Z,87.57
2017-11-06T04:22:51.634Z,87.62
2017-11-06T04:24:02.129Z,87.34
2017-11-06T04:25:12.582Z,87.24
2017-11-06T04:26:23.048Z,87.34
2017-11-06T04:27:33.440Z,87.71
2017-11-06T04:28:43.903Z,87.52
2017-11-06T04:29:54.742Z,87.43
2017-11-06T04:31:05.172Z,87.24
2017-11-06T04:32:15.658Z,87.52
2017-11-06T04:33:26.201Z,87.52
2017-11-06T04:34:36.879Z,88.28
2017-11-06T04:35:46.879Z,88.09
2017-11-06T04:36:57.336Z,88.09
2017-11-06T04:38:07.778Z,88
2017-11-06T04:39:17.928Z,87.81
2017-11-06T04:40:28.402Z,88.09
2017-11-06T04:41:38.829Z,88.09
2017-11-06T04:42:48.940Z,88
2017-11-06T04:43:59.367Z,88.09
2017-11-06T04:45:09.887Z,87.81
2017-11-06T04:46:20.346Z,88
2017-11-06T04:47:30.827Z,88.09
2017-11-06T04:48:41.051Z,88.09
2017-11-06T04:49:51.496Z,88
2017-11-06T04:51:01.996Z,88.19
2017-11-06T04:52:12.455Z,88.09
2017-11-06T04:53:23.170Z,88.28
2017-11-06T04:54:33.619Z,87.9
2017-11-06T04:55:44.036Z,88.38
2017-11-06T04:56:54.579Z,88.19
2017-11-06T04:58:05.014Z,88
2017-11-06T04:59:15.059Z,88.67
2017-11-06T05:00:25.517Z,88.67
2017-11-06T05:01:35.973Z,88.47
2017-11-06T05:02:46.512Z,88.47
2017-11-06T05:03:57.174Z,88.47
2017-11-06T05:05:07.721Z,88.76
2017-11-06T05:06:18.175Z,88.67
2017-11-06T05:07:28.605Z,88.28
2017-11-06T05:08:39.047Z,88.19
2017-11-06T05:09:49.504Z,88
2017-11-06T05:11:00.062Z,88
2017-11-06T05:12:10.656Z,88.09
2017-11-06T05:13:20.802Z,88.67
2017-11-06T05:14:31.260Z,88.09
2017-11-06T05:15:41.699Z,87.95
2017-11-06T05:16:51.391Z,88.05
2017-11-06T05:18:01.952Z,88.62
2017-11-06T05:19:12.638Z,88.62
2017-11-06T05:20:23.093Z,88.43
2017-11-06T05:21:33.570Z,88.43
2017-11-06T05:22:44.024Z,88.43
2017-11-06T05:23:54.605Z,88.43
2017-11-06T05:25:04.721Z,88.43
2017-11-06T05:26:14.437Z,88.62
2017-11-06T05:27:24.916Z,88.71
2017-11-06T05:28:34.644Z,88.43
2017-11-06T05:29:44.752Z,88.53
2017-11-06T05:30:55.206Z,88.62
2017-11-06T05:32:05.658Z,88.24
2017-11-06T05:33:15.827Z,87.95
2017-11-06T05:34:26.286Z,88.24
2017-11-06T05:35:36.716Z,88.62
2017-11-06T05:36:47.195Z,88.53
2017-11-06T05:37:57.732Z,88.53
2017-11-06T05:39:08.178Z,88.43
2017-11-06T05:40:18.299Z,88.43
2017-11-06T05:41:28.801Z,88.43
2017-11-06T05:42:39.275Z,88.71
2017-11-06T05:43:49.808Z,88.62
2017-11-06T05:44:59.914Z,87.95
2017-11-06T05:46:10.366Z,87.95
2017-11-06T05:47:20.857Z,88.43
2017-11-06T05:48:31.280Z,88.24
2017-11-06T05:49:41.735Z,87.86
2017-11-06T05:50:51.752Z,88.62
2017-11-06T05:52:02.263Z,88.43
2017-11-06T05:53:12.715Z,88.43
2017-11-06T05:54:23.214Z,88.62
2017-11-06T05:55:33.654Z,88.43
2017-11-06T05:56:44.103Z,88.43
2017-11-06T05:57:54.224Z,88.34
2017-11-06T05:59:04.435Z,88.43
2017-11-06T06:00:14.882Z,88.53
2017-11-06T06:01:25.111Z,88.43
2017-11-06T06:02:35.651Z,88.34
2017-11-06T06:03:45.709Z,88.53
2017-11-06T06:04:55.497Z,88.43
2017-11-06T06:06:05.987Z,88.62
2017-11-06T06:07:16.487Z,88.15
2017-11-06T06:08:26.947Z,88.53
2017-11-06T06:09:37.369Z,87.95
2017-11-06T06:10:47.800Z,87.95
2017-11-06T06:11:58.255Z,88.15
2017-11-06T06:13:08.731Z,87.95
2017-11-06T06:14:19.175Z,87.86
2017-11-06T06:15:29.628Z,88.15
2017-11-06T06:16:40.056Z,88.24
2017-11-06T06:17:50.627Z,88.05
2017-11-06T06:19:00.924Z,87.86
2017-11-06T06:20:11.430Z,87.95
2017-11-06T06:21:21.846Z,87.76
2017-11-06T06:22:32.335Z,87.76
2017-11-06T06:23:42.810Z,87.76
2017-11-06T06:24:53.487Z,87.76
2017-11-06T06:26:03.967Z,87.86
2017-11-06T06:27:14.425Z,87.86
2017-11-06T06:28:25.078Z,87.86
2017-11-06T06:29:35.732Z,87.67
2017-11-06T06:30:46.301Z,88.15
2017-11-06T06:31:56.741Z,88.15
2017-11-06T06:33:06.870Z,88.05
2017-11-06T06:34:17.356Z,87.95
2017-11-06T06:35:27.465Z,87.76
2017-11-06T06:36:37.928Z,87.76
2017-11-06T06:37:48.533Z,88.15
2017-11-06T06:38:58.549Z,88.34
2017-11-06T06:40:09.005Z,87.86
2017-11-06T06:41:19.108Z,88.05
2017-11-06T06:42:29.829Z,87.57
2017-11-06T06:43:40.391Z,88.05
2017-11-06T06:44:50.863Z,87.1
2017-11-06T06:46:00.538Z,87.57
2017-11-06T06:47:11.017Z,87.48
2017-11-06T06:48:21.484Z,87.57
2017-11-06T06:49:31.524Z,87.29
2017-11-06T06:50:41.975Z,87.48
2017-11-06T06:51:51.978Z,87.38
2017-11-06T06:53:02.128Z,87.57
2017-11-06T06:54:12.685Z,87.29
2017-11-06T06:55:22.819Z,87.48
2017-11-06T06:56:34.234Z,87.38
2017-11-06T06:57:44.385Z,87.57
2017-11-06T06:58:54.836Z,87.38
2017-11-06T07:00:05.431Z,87.57
2017-11-06T07:01:15.874Z,87.38
2017-11-06T07:02:26.329Z,87.38
2017-11-06T07:03:36.773Z,87.67
2017-11-06T07:04:47.235Z,87.19
2017-11-06T07:05:57.682Z,87.57
2017-11-06T07:07:08.180Z,87.48
2017-11-06T07:08:18.614Z,86.91
2017-11-06T07:09:29.062Z,86.91
2017-11-06T07:10:39.353Z,86.91
2017-11-06T07:11:49.785Z,86.24
2017-11-06T07:13:00.284Z,86.29
2017-11-06T07:14:10.745Z,85.62
2017-11-06T07:15:20.877Z,85.15
2017-11-06T07:16:32.308Z,84.33
2017-11-06T07:17:42.763Z,83.86
2017-11-06T07:18:53.202Z,83.04
2017-11-06T07:20:03.677Z,81.18
2017-11-06T07:21:14.158Z,80.36
2017-11-06T07:22:24.590Z,78.88
2017-11-06T07:23:35.060Z,78.22
2017-11-06T07:24:45.491Z,77.2
2017-11-06T07:25:55.937Z,75.91
2017-11-06T07:27:06.075Z,75.09
2017-11-06T07:28:16.599Z,73.6
2017-11-06T07:29:26.384Z,72.83
2017-11-06T07:30:36.539Z,72.2
2017-11-06T07:31:46.981Z,70.77
2017-11-06T07:32:57.107Z,70.14
2017-11-06T07:34:07.240Z,69.95
2017-11-06T07:35:17.685Z,69.47
2017-11-06T07:36:28.138Z,68.45
2017-11-06T07:37:38.600Z,67.02
2017-11-06T07:38:49.048Z,65.77
2017-11-06T07:39:59.177Z,66
2017-11-06T07:41:09.627Z,64.28
2017-11-06T07:42:20.173Z,65.14
2017-11-06T07:43:31.615Z,64.12
2017-11-06T07:44:42.115Z,63.83
2017-11-06T07:45:52.554Z,63.19
2017-11-06T07:47:03.104Z,62.33
2017-11-06T07:48:13.568Z,62.52
2017-11-06T07:49:24.033Z,60.51
2017-11-06T07:50:34.512Z,60.61
2017-11-06T07:51:45.009Z,60.8
2017-11-06T07:52:55.463Z,59.75
2017-11-06T07:54:05.500Z,59.3
2017-11-06T07:55:15.303Z,59.17
2017-11-06T07:56:25.076Z,59.48
2017-11-06T07:57:35.203Z,59.84
2017-11-06T07:58:45.662Z,60.38
2017-11-06T07:59:56.118Z,60.35
2017-11-06T08:01:06.275Z,60.74
2017-11-06T08:02:16.719Z,60.48
2017-11-06T08:03:28.407Z,59.81
2017-11-06T08:04:39.253Z,59.84
2017-11-06T08:05:49.924Z,59.2
2017-11-06T08:07:02.440Z,57.21
2017-11-06T08:08:13.512Z,57.34
2017-11-06T08:09:23.312Z,56.48
2017-11-06T08:10:33.653Z,55.42
2017-11-06T08:11:44.133Z,56
2017-11-06T08:12:54.605Z,54.39
2017-11-06T08:14:05.052Z,54.13
2017-11-06T08:15:15.504Z,52.4
2017-11-06T08:16:25.854Z,52.22
2017-11-06T08:17:36.306Z,52.34
2017-11-06T08:18:46.875Z,53.01
2017-11-06T08:19:57.056Z,51.5
2017-11-06T08:21:07.342Z,50.34
2017-11-06T08:22:17.798Z,51.04
2017-11-06T08:23:28.252Z,49.15
2017-11-06T08:24:38.692Z,47.89
2017-11-06T08:25:48.743Z,46.06
2017-11-06T08:26:59.391Z,47.8
2017-11-06T08:28:09.866Z,47.89
2017-11-06T08:29:20.342Z,47.03
2017-11-06T08:30:30.812Z,47.72
2017-11-06T08:31:41.364Z,48.28
2017-11-06T08:32:51.828Z,49.12
2017-11-06T08:34:02.284Z,48.71
2017-11-06T08:35:12.753Z,48.9
2017-11-06T08:36:23.214Z,47.75
2017-11-06T08:37:33.675Z,47.75
2017-11-06T08:38:43.822Z,47.49
2017-11-06T08:39:53.853Z,47.3
2017-11-06T08:41:04.300Z,47.03
2017-11-06T08:42:14.977Z,47.03
2017-11-06T08:43:25.446Z,46.09
2017-11-06T08:44:35.895Z,46.09
2017-11-06T08:45:45.931Z,45.44
2017-11-06T08:46:56.586Z,43.23
2017-11-06T08:48:07.031Z,43.41
2017-11-06T08:49:17.534Z,44.57
2017-11-06T08:50:28.038Z,43.9
2017-11-06T08:51:38.503Z,44.28
2017-11-06T08:52:48.974Z,44.09
2017-11-06T08:53:59.450Z,43.15
2017-11-06T08:55:10.111Z,43.82
2017-11-06T08:56:20.561Z,43.15
2017-11-06T08:57:31.105Z,41.53
2017-11-06T08:58:41.586Z,41.92
2017-11-06T08:59:52.027Z,41.14
2017-11-06T09:01:02.481Z,42.4
2017-11-06T09:02:13.060Z,42.59
2017-11-06T09:03:23.764Z,42.23
2017-11-06T09:04:34.258Z,42.15
2017-11-06T09:05:44.567Z,41.86
2017-11-06T09:06:55.105Z,41.19
2017-11-06T09:08:05.573Z,39.76
2017-11-06T09:09:15.701Z,40.22
2017-11-06T09:10:26.187Z,39.54
2017-11-06T09:11:37.768Z,40.03
2017-11-06T09:12:50.618Z,40.32
2017-11-06T09:14:01.086Z,41.19
2017-11-06T09:15:11.543Z,40.22
2017-11-06T09:16:22.006Z,39.66
2017-11-06T09:17:32.484Z,40.22
2017-11-06T09:18:42.944Z,38.68
2017-11-06T09:19:53.418Z,40.03
2017-11-06T09:21:03.898Z,40.12
2017-11-06T09:22:14.378Z,39.43
2017-11-06T09:23:24.434Z,40.49
2017-11-06T09:24:34.947Z,40.28
2017-11-06T09:25:45.466Z,40.47
2017-11-06T09:26:55.923Z,40.47
2017-11-06T09:28:06.595Z,41.14
2017-11-06T09:30:29.951Z,41.14
2017-11-06T09:36:40.863Z,40.16
2017-11-06T09:37:51.350Z,39.97
2017-11-06T09:40:27.450Z,40.55
2017-11-06T09:41:39.706Z,40.55
2017-11-06T09:42:50.194Z,40.84
2017-11-06T09:44:03.808Z,41.61
2017-11-06T09:45:16.422Z,41.89
2017-11-06T09:46:28.542Z,41.89
2017-11-06T09:49:25.827Z,39.22
2017-11-06T09:50:36.394Z,40.39
2017-11-06T09:51:46.880Z,39.43
2017-11-06T09:52:57.366Z,39.14
2017-11-06T09:54:07.525Z,39.62
2017-11-06T09:55:18.008Z,38.66
2017-11-06T09:56:28.475Z,39.91
2017-11-06T09:57:38.921Z,39.43
2017-11-06T09:58:49.557Z,39.43
2017-11-06T10:00:00.117Z,37.89
2017-11-06T10:01:10.597Z,37.5
2017-11-06T10:02:21.080Z,38.37
2017-11-06T10:03:31.690Z,38.28
2017-11-06T10:04:42.180Z,38.66
2017-11-06T10:05:52.726Z,39.62
2017-11-06T10:07:03.233Z,39.82
2017-11-06T10:08:13.775Z,39.22
2017-11-06T10:09:24.245Z,39.61
2017-11-06T10:10:34.401Z,38.64
2017-11-06T10:11:44.879Z,39.12
2017-11-06T10:12:55.489Z,38.26
2017-11-06T10:14:06.153Z,39.31
2017-11-06T10:15:16.634Z,40.09
2017-11-06T10:16:26.814Z,39.97
2017-11-06T10:17:37.303Z,40.45
2017-11-06T10:18:47.749Z,40.94
2017-11-06T10:19:58.231Z,40.81
2017-11-06T10:21:08.708Z,40.72
2017-11-06T10:22:19.266Z,41.18
2017-11-06T10:23:29.099Z,41.38
2017-11-06T10:24:39.665Z,41.95
2017-11-06T10:25:50.158Z,42.22
2017-11-06T10:27:00.637Z,42.03
2017-11-06T10:28:11.087Z,42.5
2017-11-06T10:29:21.547Z,42.41
2017-11-06T10:30:32.035Z,42.05
2017-11-06T10:31:42.530Z,41.56
2017-11-06T10:32:53.026Z,41.38
2017-11-06T10:34:03.176Z,40.81
2017-11-06T10:35:13.674Z,41.3
2017-11-06T10:36:24.168Z,40.81
2017-11-06T10:37:34.655Z,41.49
2017-11-06T10:38:45.146Z,40.84
2017-11-06T10:39:55.729Z,40.84
2017-11-06T10:41:06.493Z,40.09
2017-11-06T10:42:16.966Z,39.51
2017-11-06T10:43:27.481Z,38.45
2017-11-06T10:44:37.942Z,39.61
2017-11-06T10:45:48.498Z,39.03
2017-11-06T10:46:58.963Z,38.64
2017-11-06T10:48:09.480Z,39.12
2017-11-06T10:49:19.930Z,38.64
2017-11-06T10:50:30.530Z,38.35
2017-11-06T10:51:41.241Z,38.72
2017-11-06T10:52:51.771Z,39.29
2017-11-06T10:54:02.235Z,39.39
2017-11-06T10:55:12.710Z,39.41
2017-11-06T10:56:22.842Z,39.41
2017-11-06T10:57:33.336Z,39.79
2017-11-06T10:58:43.799Z,39.7
2017-11-06T10:59:54.257Z,39.31
2017-11-06T11:01:04.876Z,39.41
2017-11-06T11:02:15.406Z,39.7
2017-11-06T11:03:25.878Z,39.31
2017-11-06T11:04:36.385Z,38.83
2017-11-06T11:05:46.873Z,38.54
2017-11-06T11:06:57.373Z,39.31
2017-11-06T11:08:07.882Z,39.41
2017-11-06T11:09:18.370Z,40.19
2017-11-06T11:10:28.833Z,40.94
2017-11-06T11:11:39.301Z,40.74
2017-11-06T11:12:49.784Z,41.39
2017-11-06T11:14:00.274Z,40.72
2017-11-06T11:15:10.419Z,40.81
2017-11-06T11:16:20.886Z,40.81
2017-11-06T11:17:31.465Z,40.81
2017-11-06T11:18:41.614Z,41.01
2017-11-06T11:19:52.080Z,41.3
2017-11-06T11:21:02.232Z,41.2
2017-11-06T11:22:12.407Z,41.01
2017-11-06T11:23:22.925Z,41.28
2017-11-06T11:24:33.392Z,40.81
2017-11-06T11:25:43.883Z,41.01
2017-11-06T11:26:54.114Z,41.3
2017-11-06T11:28:04.629Z,41.11
2017-11-06T11:29:14.761Z,40.91
2017-11-06T11:30:25.259Z,40.84
2017-11-06T11:31:35.394Z,40.55
2017-11-06T11:32:45.881Z,40.74
2017-11-06T11:33:56.452Z,40.36
2017-11-06T11:35:06.614Z,40.74
2017-11-06T11:36:17.172Z,41.32
2017-11-06T11:37:27.632Z,41.22
2017-11-06T11:38:37.806Z,40.94
2017-11-06T11:39:48.392Z,40.84
2017-11-06T11:40:58.891Z,40.84
2017-11-06T11:42:09.367Z,40.84
2017-11-06T11:43:19.904Z,41.41
2017-11-06T11:44:30.382Z,41.41
2017-11-06T11:45:40.830Z,40.64
2017-11-06T11:46:51.486Z,40.95
2017-11-06T11:48:01.647Z,39.79
2017-11-06T11:49:11.791Z,40.09
2017-11-06T11:50:22.317Z,40.76
2017-11-06T11:51:32.851Z,40.55
2017-11-06T11:52:43.558Z,40.64
2017-11-06T11:53:53.696Z,40.94
2017-11-06T11:55:04.248Z,41.41
2017-11-06T11:56:14.497Z,41.22
2017-11-06T11:57:24.974Z,40.74
2017-11-06T11:58:35.140Z,41.61
2017-11-06T11:59:45.597Z,42.07
2017-11-06T12:00:56.061Z,43.01
2017-11-06T12:02:06.536Z,43.28
2017-11-06T12:03:16.825Z,44.22
2017-11-06T12:04:27.445Z,44.58
2017-11-06T12:05:38.167Z,45.25
2017-11-06T12:06:48.624Z,45.81
2017-11-06T12:07:59.178Z,46.17
2017-11-06T12:09:09.702Z,46.84
2017-11-06T12:10:20.162Z,47.61
2017-11-06T12:11:30.614Z,48.16
2017-11-06T12:12:41.111Z,48.74
2017-11-06T12:13:51.580Z,48.64
2017-11-06T12:15:02.057Z,49.12
2017-11-06T12:16:12.505Z,49.02
2017-11-06T12:17:22.961Z,48.93
2017-11-06T12:18:33.411Z,48.66
2017-11-06T12:19:43.890Z,48.18
2017-11-06T12:20:54.352Z,48.18
2017-11-06T12:22:05.090Z,48.09
2017-11-06T12:23:15.211Z,48.3
2017-11-06T12:24:25.484Z,48.21
2017-11-06T12:25:35.965Z,48.3
2017-11-06T12:26:46.436Z,48.21
2017-11-06T12:27:56.922Z,48.49
2017-11-06T12:29:07.391Z,47.82
2017-11-06T12:30:17.606Z,47.82
2017-11-06T12:31:28.127Z,48.02
2017-11-06T12:32:38.667Z,48.3
2017-11-06T12:33:49.800Z,48.28
2017-11-06T12:35:00.287Z,49.05
2017-11-06T12:36:10.802Z,48.85
2017-11-06T12:37:21.336Z,49.41
2017-11-06T12:38:32.476Z,49.88
2017-11-06T12:39:42.966Z,50.05
2017-11-06T12:40:53.430Z,50.53
2017-11-06T12:42:03.976Z,50.92
2017-11-06T12:43:14.456Z,51.08
2017-11-06T12:44:24.936Z,51.65
2017-11-06T12:45:35.398Z,52.14
2017-11-06T12:46:45.880Z,52.23
2017-11-06T12:47:56.580Z,52.62
2017-11-06T12:49:06.836Z,52.62
2017-11-06T12:50:17.333Z,52.97
2017-11-06T12:51:27.482Z,53.07
2017-11-06T12:52:38.074Z,53.36
2017-11-06T12:53:48.585Z,53.16
2017-11-06T12:54:58.720Z,53.09
2017-11-06T12:56:09.200Z,53.58
2017-11-06T12:57:19.791Z,52.91
2017-11-06T12:58:29.939Z,53.09
2017-11-06T12:59:40.412Z,53
2017-11-06T13:00:50.891Z,52.42
2017-11-06T13:02:01.326Z,52.52
2017-11-06T13:03:11.864Z,52.71
2017-11-06T13:04:22.330Z,52.91
2017-11-06T13:05:32.799Z,53.19
2017-11-06T13:06:43.260Z,53.58
2017-11-06T13:07:54.026Z,53.07
2017-11-06T13:09:04.472Z,53.74
2017-11-06T13:10:14.963Z,53.74
2017-11-06T13:11:25.440Z,54.22
2017-11-06T13:12:35.955Z,54.6
2017-11-06T13:13:46.400Z,54.86
2017-11-06T13:14:56.889Z,54.96
2017-11-06T13:16:07.480Z,54.96
2017-11-06T13:17:17.569Z,55.34
2017-11-06T13:18:28.058Z,55.98
2017-11-06T13:19:38.502Z,56.17
2017-11-06T13:20:49.087Z,56.56
2017-11-06T13:21:59.629Z,56.84
2017-11-06T13:23:10.077Z,57.13
2017-11-06T13:24:20.593Z,57.13
2017-11-06T13:25:31.080Z,57.58
2017-11-06T13:26:41.533Z,58.63
2017-11-06T13:27:51.985Z,58.34
2017-11-06T13:29:02.696Z,58.7
2017-11-06T13:30:13.214Z,58.98
2017-11-06T13:31:23.351Z,59.18
2017-11-06T13:32:33.852Z,59.66
2017-11-06T13:33:44.581Z,60.33
2017-11-06T13:34:55.097Z,59.94
2017-11-06T13:36:05.550Z,60.04
2017-11-06T13:37:16.227Z,60.49
2017-11-06T13:38:26.689Z,60.68
2017-11-06T13:39:37.147Z,60.87
2017-11-06T13:40:47.418Z,61.54
2017-11-06T13:41:57.559Z,61.72
2017-11-06T13:43:08.151Z,61.54
2017-11-06T13:44:18.646Z,61.54
2017-11-06T13:45:29.127Z,61.35
2017-11-06T13:46:39.248Z,61.72
2017-11-06T13:47:49.720Z,62.3
2017-11-06T13:49:00.235Z,62.3
2017-11-06T13:50:10.691Z,62.4
2017-11-06T13:51:21.186Z,62.4
2017-11-06T13:52:31.643Z,62.21
2017-11-06T13:53:42.117Z,62.68
2017-11-06T13:54:52.566Z,62.55
2017-11-06T13:56:03.047Z,62.46
2017-11-06T13:57:13.504Z,63.03
2017-11-06T13:58:23.983Z,63.03
2017-11-06T13:59:34.430Z,63.32
2017-11-06T14:00:44.960Z,63.23
2017-11-06T14:01:55.434Z,63.13
2017-11-06T14:03:06.125Z,63.51
2017-11-06T14:04:16.620Z,63.7
2017-11-06T14:05:27.167Z,63.99
2017-11-06T14:06:37.367Z,64.28
2017-11-06T14:07:47.490Z,64.47
2017-11-06T14:08:58.013Z,64.28
2017-11-06T14:10:08.716Z,64.47
2017-11-06T14:11:19.369Z,64.37
2017-11-06T14:12:29.870Z,64.85
2017-11-06T14:13:40.344Z,64.65
2017-11-06T14:14:50.825Z,64.94
2017-11-06T14:16:01.299Z,65.33
2017-11-06T14:17:11.379Z,65.39
2017-11-06T14:18:21.850Z,65.58
2017-11-06T14:19:31.990Z,65.87
2017-11-06T14:20:42.690Z,65.87
2017-11-06T14:21:53.183Z,65.96
2017-11-06T14:23:03.667Z,65.67
2017-11-06T14:24:14.183Z,65.67
2017-11-06T14:25:24.661Z,65.9
2017-11-06T14:26:35.142Z,66.19
2017-11-06T14:27:45.702Z,66.06
2017-11-06T14:28:55.870Z,66.06
2017-11-06T14:30:06.641Z,66.15
2017-11-06T14:31:17.102Z,65.61
2017-11-06T14:32:27.596Z,66.35
2017-11-06T14:33:38.073Z,66.15
2017-11-06T14:34:48.222Z,66.15
2017-11-06T14:35:57.944Z,66.72
2017-11-06T14:37:08.401Z,66.53
2017-11-06T14:38:18.887Z,66.72
2017-11-06T14:39:29.537Z,67.4
2017-11-06T14:40:40.000Z,67.01
2017-11-06T14:41:50.576Z,67.11
2017-11-06T14:43:01.220Z,67.49
2017-11-06T14:44:11.716Z,67.58
2017-11-06T14:45:22.165Z,67.77
2017-11-06T14:46:32.304Z,67.77
2017-11-06T14:47:42.757Z,68.03
2017-11-06T14:48:53.277Z,68.32
2017-11-06T14:50:03.447Z,67.83
2017-11-06T14:51:13.958Z,68.12
2017-11-06T14:52:24.427Z,68.32
2017-11-06T14:53:34.870Z,68.51
2017-11-06T14:54:45.398Z,68.41
2017-11-06T14:55:55.867Z,68.98
2017-11-06T14:57:06.355Z,69.08
2017-11-06T14:58:16.995Z,69.37
2017-11-06T14:59:27.506Z,69.08
2017-11-06T15:00:37.981Z,69.43
2017-11-06T15:01:48.496Z,69.9
2017-11-06T15:02:58.952Z,70
2017-11-06T15:04:09.469Z,69.9
2017-11-06T15:05:19.955Z,69.71
2017-11-06T15:06:30.079Z,70.09
2017-11-06T15:07:40.690Z,69.9
2017-11-06T15:08:51.187Z,69.62
2017-11-06T15:10:01.659Z,70.19
2017-11-06T15:11:12.143Z,70.28
2017-11-06T15:12:22.365Z,70.19
2017-11-06T15:13:32.828Z,70.67
2017-11-06T15:14:43.292Z,71.04
2017-11-06T15:15:53.573Z,70.67
2017-11-06T15:17:04.051Z,71.04
2017-11-06T15:18:14.574Z,70.76
2017-11-06T15:19:24.826Z,70.95
2017-11-06T15:20:35.268Z,71.04